Tuesday, September 30, 2014
18:00 UTC
  |  Log In   |  Register Free
Airport Search:

Lonesome Pine Airport
(KLNP)

Lonesome Pine Airport Diagram
No Airport Diagram Available

FAA data valid effective September 18, 2014 - November 13, 2014 (unless otherwise noted).

 
 
 
 
 
 
 
 
 
 
 
 
 
 

Current Aviation Weather for Lonesome Pine Airport (KLNP)

The most recent METAR observation for KLNP was updated at: 1713
METAR Summary (Translated METAR)
KLNP
301655Z AUTO 33007KT 10SM CLR 23/10 A3003 RMK AO2
KVJI
301655Z AUTO 00000KT 10SM BKN028 BKN033 BKN043 23/16 A3000 RMK AO2 T02260155
(29.9 nm SE from KLNP)
KTRI
301653Z VRB04KT 10SM FEW030 SCT050 24/15 A2998 RMK AO2 SLP131 T02440150
(31.3 nm SE from KLNP)
TAF Summary (Translated TAF)
KTRI
(31.3 nm SE from KLNP)
301404Z 3014/0112 00000KT 1/4SM FG VV002 FM301500 VRB02KT 4SM BR BKN015 FM301600 26003KT P6SM SCT250 FM010100 00000KT P6SM SKC
  Airport Weather Conditions for KLNP

 Current Weather at LNP
72° F
Partly Cloudy
Northwest winds at 10.4 mph
LNP NOAA Radar

Pressure: 30.04 in
Humidity: 47%
Wind: Northwest at 10.4 MPH (9 KT)
Dew Point: 50.0°F
Visibility: 10.00 mi


Airport Weather Forecast for KLNP

Translated METAR and TAF for KLNP
Translated METAR for KLNP (1754 UTC 30 September 2014)
found at http://aviationweather.gov/adds/metars/
 
METAR text: KLNP 301735Z AUTO 24003KT 10SM SCT042 23/08 A3002 RMK AO2
Conditions at: KLNP (WISE/LONESOME PI, VA, US) observed 1735 UTC 30 September 2014
Temperature: 23.0°C (73°F)
Dewpoint: 8.0°C (46°F) [RH = 38%]
Pressure (altimeter): 30.02 inches Hg (1016.7 mb)
Winds: from the WSW (240 degrees) at 3 MPH (3 knots; 1.6 m/s)
Visibility: 10 or more miles (16+ km)
Ceiling: at least 12,000 feet AGL
Clouds: scattered clouds at 4200 feet AGL
Weather: automated observation with no human augmentation;
there may or may not be significant weather present at this time
Translated TAF for KLNP

There is no translated TAF available for this airport

Find All Airport Services Find A Hotel Find A Rental Car Find A Golf Course Find A Restaurant $100 Hamburger



FBO's on the Field
FBO Company Facility Photos Services Transportation Aviation Fuel Prices: Prices include tax
Catering Weather Repair Courtesy Rental Type 100LL JetA JetA+ MOGAS 8087
 
Lonesome Pine Airport

This FBO has not yet been rated
FS:Shell
Last Updated: Sep-24
Login to update fuel prices
SS:
Contact Lonesome Pine AirportMore FBO Information
 
Add another FBO Facility Photos Catering Weather Repair Courtesy Rental Type 100LL JetA JetA+ MOGAS 8087
Services Transportation Aviation Fuel Prices: Prices include tax


model-print
model-print
model-print
model-print